KWVI/WVI METAR and TAF weather

Enter ICAO airport designator
Station Type Date Time Source
KWVI METAR 2021/09/16 20:53 UTC NOAA

KWVI 162053Z AUTO 27008KT 10SM BKN016 17/11 A2990 RMK AO2 SLP123 T01670111 58006


Station Type Date Time Source
KWVI Decoded METAR 2021/09/16 20:53 UTC NOAA

WATSONVILLE MUNICIPAL AIRPORT , CA, United States (KWVI) 36-56N 121-47W 43M
Sep 16, 2021 - 04:53 PM EDT / 2021.09.16 2053 UTC
Wind: from the W (270 degrees) at 9 MPH (8 KT):0
Visibility: 10 mile(s):0
Sky conditions: mostly cloudy
Temperature: 62.1 F (16.7 C)
Dew Point: 52.0 F (11.1 C)
Relative Humidity: 69%
Pressure (altimeter): 29.9 in. Hg (1012 hPa)
Pressure tendency: 0.02 inches (0.6 hPa) lower than three hours ago
ob: KWVI 162053Z AUTO 27008KT 10SM BKN016 17/11 A2990 RMK AO2 SLP123 T01670111 58006
cycle: 21

Station Type Date Time Source
KWVI TAF UTC NOAA

Error!

Example: see airport list